Time;durP1;ratioP1;P1;durP2;ratioP2;P2;SDS_P1;SDS_P2;PMS_P1;PMS_P2;Temp;Humidity;BMP_temperature;BMP_pressure;BME280_temperature;BME280_humidity;BME280_pressure;Samples;Min_cycle;Max_cycle;Signal;HPM_P1;HPM_P2
2022/09/02 00:02:15;;;;;;;2.17;0.90;;;14.40;95.90;;;;;;5063232;28;20059;-66
2022/09/02 00:04:41;;;;;;;3.42;0.90;;;14.40;96.20;;;;;;5061958;28;20044;-66
2022/09/02 00:07:06;;;;;;;1.52;0.90;;;14.40;96.20;;;;;;5060274;28;20055;-65
2022/09/02 00:09:32;;;;;;;2.45;1.05;;;14.30;96.20;;;;;;5062677;28;20048;-66
2022/09/02 00:11:58;;;;;;;2.65;0.90;;;14.30;96.20;;;;;;5064166;28;20041;-66
2022/09/02 00:14:35;;;;;;;1.02;0.60;;;14.30;96.50;;;;;;5060277;28;20080;-67
2022/09/02 00:17:02;;;;;;;1.85;0.73;;;14.30;96.80;;;;;;5062930;28;20044;-67
2022/09/02 00:19:29;;;;;;;3.13;0.90;;;14.30;96.70;;;;;;5060798;28;20075;-68
2022/09/02 00:21:56;;;;;;;1.08;0.98;;;14.20;96.70;;;;;;5060999;28;20032;-66
2022/09/02 00:24:23;;;;;;;2.92;0.93;;;14.20;96.90;;;;;;5060029;28;20041;-66
2022/09/02 00:26:49;;;;;;;3.33;0.77;;;14.20;97.00;;;;;;5061844;28;20173;-65
2022/09/02 00:29:16;;;;;;;3.83;1.00;;;14.20;97.20;;;;;;5062064;28;20040;-68
2022/09/02 00:31:43;;;;;;;2.92;0.90;;;14.10;97.30;;;;;;5061739;28;20074;-66
2022/09/02 00:34:09;;;;;;;2.40;0.80;;;14.10;97.50;;;;;;5062150;28;20174;-67
2022/09/02 00:36:35;;;;;;;1.88;0.80;;;14.10;97.60;;;;;;5063089;28;20764;-69
2022/09/02 00:39:01;;;;;;;1.50;0.95;;;14.10;97.70;;;;;;5061602;28;20861;-66
2022/09/02 00:41:28;;;;;;;4.88;1.23;;;14.00;97.70;;;;;;5060803;28;20040;-66
2022/09/02 00:44:06;;;;;;;2.28;0.88;;;14.00;97.70;;;;;;5093286;27;1209054;-48
2022/09/02 00:46:33;;;;;;;1.35;0.90;;;14.00;98.10;;;;;;5136849;27;20105;-48
2022/09/02 00:49:16;;;;;;;2.50;1.05;;;14.00;98.20;;;;;;5117645;27;20039;-49
2022/09/02 00:51:50;;;;;;;2.15;0.90;;;14.00;98.00;;;;;;5136903;27;20042;-50
2022/09/02 00:54:19;;;;;;;3.95;1.00;;;14.00;98.20;;;;;;5106327;27;20055;-49
2022/09/02 00:56:46;;;;;;;1.35;0.88;;;14.00;98.60;;;;;;5117664;28;20127;-47
2022/09/02 00:59:17;;;;;;;1.52;0.85;;;14.00;98.40;;;;;;5117676;28;20446;-49
2022/09/02 01:01:43;;;;;;;2.58;0.90;;;13.90;98.70;;;;;;5123345;28;20035;-49
2022/09/02 01:04:09;;;;;;;2.80;0.77;;;13.90;98.60;;;;;;5125392;28;20074;-46
2022/09/02 01:06:34;;;;;;;1.00;0.73;;;13.80;98.80;;;;;;5125953;28;20070;-49
2022/09/02 01:09:10;;;;;;;0.90;0.85;;;13.80;98.90;;;;;;5106211;28;20069;-47
2022/09/02 01:11:43;;;;;;;1.90;0.80;;;13.80;99.20;;;;;;5123544;28;20071;-50
2022/09/02 01:14:12;;;;;;;2.45;0.80;;;13.80;99.00;;;;;;5121852;28;20488;-50
2022/09/02 01:16:59;;;;;;;3.30;1.00;;;13.80;99.50;;;;;;5120297;28;20046;-47
2022/09/02 01:19:30;;;;;;;2.72;0.80;;;13.80;99.30;;;;;;5123638;28;20085;-49
2022/09/02 01:21:57;;;;;;;1.42;1.00;;;13.80;99.50;;;;;;5125623;28;20040;-47
2022/09/02 01:24:27;;;;;;;1.67;0.80;;;13.70;99.60;;;;;;5124910;28;20122;-47
2022/09/02 01:26:55;;;;;;;1.30;0.80;;;13.70;99.90;;;;;;5125135;28;20412;-49
2022/09/02 01:29:22;;;;;;;1.40;0.82;;;13.70;99.80;;;;;;5105584;28;20130;-52
2022/09/02 01:31:48;;;;;;;5.35;0.80;;;13.60;99.90;;;;;;5115291;27;20123;-47
2022/09/02 01:34:14;;;;;;;2.10;0.80;;;13.60;99.90;;;;;;5120067;28;20126;-49
2022/09/02 01:36:42;;;;;;;1.73;0.90;;;13.60;99.90;;;;;;5117242;28;20032;-45
2022/09/02 01:39:08;;;;;;;;;;;13.50;99.90;;;;;;5117894;27;20043;-46
2022/09/02 01:41:34;;;;;;;1.77;1.00;;;13.50;99.90;;;;;;5115675;27;19920;-49
2022/09/02 01:44:00;;;;;;;2.80;0.98;;;13.50;99.90;;;;;;5116580;27;20505;-49
2022/09/02 01:46:26;;;;;;;2.10;0.90;;;13.50;99.90;;;;;;5097631;28;20050;-49
2022/09/02 01:48:52;;;;;;;1.98;0.80;;;13.40;99.90;;;;;;5112912;27;20088;-47
2022/09/02 01:51:19;;;;;;;1.98;1.00;;;13.40;99.90;;;;;;5115131;27;20039;-50
2022/09/02 01:53:47;;;;;;;1.38;0.80;;;13.40;99.90;;;;;;5112475;27;20132;-48
2022/09/02 01:56:13;;;;;;;1.23;0.80;;;13.30;99.90;;;;;;5102758;28;20039;-46
2022/09/02 01:58:39;;;;;;;1.63;0.80;;;13.30;99.90;;;;;;5100669;28;20389;-48
2022/09/02 02:01:06;;;;;;;1.88;0.80;;;13.30;99.90;;;;;;5103641;28;20118;-44
2022/09/02 02:03:32;;;;;;;3.40;1.00;;;13.30;99.90;;;;;;5101331;28;20109;-46
2022/09/02 02:05:58;;;;;;;1.00;0.90;;;13.20;99.90;;;;;;5104974;28;20055;-46
2022/09/02 02:08:24;;;;;;;0.93;0.90;;;13.20;99.90;;;;;;5092527;28;20032;-45
2022/09/02 02:10:49;;;;;;;1.60;0.90;;;13.20;99.90;;;;;;5104652;28;20075;-49
2022/09/02 02:13:15;;;;;;;0.98;0.90;;;13.10;99.90;;;;;;5102481;28;20473;-44
2022/09/02 02:15:42;;;;;;;3.92;1.10;;;13.10;99.90;;;;;;5101737;28;20038;-44
2022/09/02 02:18:09;;;;;;;1.23;1.00;;;13.10;99.90;;;;;;5100259;28;20036;-47
2022/09/02 02:20:35;;;;;;;2.92;0.98;;;13.10;99.90;;;;;;5101412;28;20149;-47
2022/09/02 02:23:02;;;;;;;0.90;0.90;;;13.10;99.90;;;;;;5101058;28;20047;-46
2022/09/02 02:25:27;;;;;;;1.55;1.00;;;13.10;99.90;;;;;;5101194;28;20036;-49
2022/09/02 02:27:53;;;;;;;2.00;1.10;;;13.00;99.90;;;;;;5102271;28;20039;-47
2022/09/02 02:30:19;;;;;;;4.35;1.08;;;13.00;99.90;;;;;;5101842;28;20054;-46
2022/09/02 02:32:46;;;;;;;1.52;0.90;;;13.00;99.90;;;;;;5101248;28;20040;-49
2022/09/02 02:35:14;;;;;;;3.85;1.20;;;13.00;99.90;;;;;;5102748;28;20043;-49
2022/09/02 02:37:40;;;;;;;1.45;1.00;;;13.00;99.90;;;;;;5105175;28;20040;-47
2022/09/02 02:40:06;;;;;;;2.53;0.98;;;12.90;99.90;;;;;;5100820;28;20097;-47
2022/09/02 02:42:34;;;;;;;1.88;0.95;;;12.90;99.90;;;;;;5103849;28;20059;-45
2022/09/02 02:45:00;;;;;;;1.15;1.00;;;13.00;99.90;;;;;;5105156;28;20052;-46
2022/09/02 02:47:26;;;;;;;1.42;0.90;;;12.90;99.90;;;;;;5101669;28;20100;-47
2022/09/02 02:49:52;;;;;;;1.38;0.93;;;12.90;99.90;;;;;;5100318;28;20410;-48
2022/09/02 02:52:18;;;;;;;3.20;0.95;;;12.90;99.90;;;;;;5101651;28;20150;-47
2022/09/02 02:54:44;;;;;;;1.45;1.10;;;12.90;99.90;;;;;;5082911;28;20073;-50
2022/09/02 02:57:10;;;;;;;1.17;1.05;;;12.90;99.90;;;;;;5099469;28;20032;-50
2022/09/02 02:59:36;;;;;;;1.33;1.20;;;12.90;99.90;;;;;;5101350;27;20039;-47
2022/09/02 03:02:03;;;;;;;4.28;1.25;;;12.80;99.90;;;;;;5107130;28;20084;-48
2022/09/02 03:04:29;;;;;;;3.50;0.80;;;12.80;99.90;;;;;;5107119;28;20071;-46
2022/09/02 03:06:54;;;;;;;3.20;1.10;;;12.80;99.90;;;;;;5107500;28;20524;-48
2022/09/02 03:09:20;;;;;;;0.93;0.93;;;12.70;99.90;;;;;;5087782;28;20069;-45
2022/09/02 03:11:47;;;;;;;1.33;0.93;;;;;;;;;;5109098;28;20509;-45
2022/09/02 03:14:13;;;;;;;2.20;0.90;;;12.70;99.90;;;;;;5108447;28;20036;-47
2022/09/02 03:16:38;;;;;;;1.60;1.00;;;12.70;99.90;;;;;;5107736;28;20035;-45
2022/09/02 03:19:05;;;;;;;3.15;1.00;;;12.70;99.90;;;;;;5108875;28;20028;-47
2022/09/02 03:21:30;;;;;;;3.45;1.05;;;12.70;99.90;;;;;;5109347;28;20393;-49
2022/09/02 03:23:56;;;;;;;3.00;1.20;;;12.60;99.90;;;;;;5109395;28;20051;-49
2022/09/02 03:26:23;;;;;;;3.33;1.10;;;12.60;99.90;;;;;;5106584;28;20032;-45
2022/09/02 03:28:50;;;;;;;1.00;1.00;;;12.60;99.90;;;;;;5106848;28;20485;-45
2022/09/02 03:31:19;;;;;;;3.15;1.20;;;12.60;99.90;;;;;;5104893;28;20067;-45
2022/09/02 03:33:44;;;;;;;1.23;0.90;;;12.60;99.90;;;;;;5103258;28;20035;-47
2022/09/02 03:36:22;;;;;;;2.67;1.15;;;12.50;99.90;;;;;;5103245;28;20050;-49
2022/09/02 03:38:48;;;;;;;1.10;0.90;;;12.50;99.90;;;;;;5104457;28;20036;-46
2022/09/02 03:41:13;;;;;;;2.65;1.15;;;12.40;99.90;;;;;;5106162;28;20043;-45
2022/09/02 03:43:39;;;;;;;2.58;0.98;;;12.40;99.90;;;;;;5106405;28;20074;-47
2022/09/02 03:46:05;;;;;;;2.67;1.17;;;12.40;99.90;;;;;;5086719;28;20148;-46
2022/09/02 03:48:30;;;;;;;3.03;1.60;;;12.40;99.90;;;;;;5087035;28;20044;-49
2022/09/02 03:50:56;;;;;;;1.23;1.13;;;12.30;99.90;;;;;;5103307;28;20541;-46
2022/09/02 03:53:22;;;;;;;1.55;0.85;;;12.30;99.90;;;;;;5100563;28;20050;-49
2022/09/02 03:55:48;;;;;;;2.13;1.20;;;12.30;99.90;;;;;;5103468;28;20036;-46
2022/09/02 03:58:14;;;;;;;3.55;1.10;;;12.30;99.90;;;;;;5106246;28;20046;-49
2022/09/02 04:00:40;;;;;;;1.90;1.25;;;12.20;99.90;;;;;;5103433;28;20040;-50
2022/09/02 04:03:06;;;;;;;1.30;1.20;;;12.20;99.90;;;;;;5103132;28;20032;-45
2022/09/02 04:05:32;;;;;;;4.05;1.33;;;12.20;99.90;;;;;;5101128;28;20122;-48
2022/09/02 04:07:59;;;;;;;2.30;1.10;;;12.20;99.90;;;;;;5104079;28;20139;-48
2022/09/02 04:10:25;;;;;;;1.30;1.20;;;12.20;99.90;;;;;;5100868;28;20044;-46
2022/09/02 04:12:51;;;;;;;1.20;1.10;;;12.10;99.90;;;;;;5104955;28;20081;-48
2022/09/02 04:15:18;;;;;;;2.05;1.20;;;12.10;99.90;;;;;;5099214;28;21283;-48
2022/09/02 04:17:43;;;;;;;1.73;1.30;;;12.10;99.90;;;;;;5086014;28;20040;-47
2022/09/02 04:20:12;;;;;;;2.17;1.20;;;12.00;99.90;;;;;;5104895;28;20134;-46
2022/09/02 04:22:37;;;;;;;2.33;1.33;;;12.00;99.90;;;;;;5105099;28;20040;-47
2022/09/02 04:25:04;;;;;;;2.08;1.00;;;12.00;99.90;;;;;;5085828;28;20373;-47
2022/09/02 04:27:30;;;;;;;2.40;1.25;;;12.00;99.90;;;;;;5103776;28;20090;-46
2022/09/02 04:29:56;;;;;;;1.40;1.30;;;12.00;99.90;;;;;;5103057;28;20462;-48
2022/09/02 04:32:22;;;;;;;1.80;1.33;;;12.00;99.90;;;;;;5101673;28;20928;-50
2022/09/02 04:34:48;;;;;;;3.38;1.40;;;11.90;99.90;;;;;;5101447;28;20028;-46
2022/09/02 04:37:14;;;;;;;1.80;1.30;;;11.90;99.90;;;;;;5102760;28;20478;-47
2022/09/02 04:39:40;;;;;;;1.63;1.30;;;11.90;99.90;;;;;;5100620;28;20043;-49
2022/09/02 04:42:05;;;;;;;2.35;1.40;;;11.90;99.90;;;;;;5098242;28;20128;-45
2022/09/02 04:44:31;;;;;;;1.45;1.30;;;11.80;99.90;;;;;;5101174;28;20043;-47
2022/09/02 04:46:57;;;;;;;1.55;1.00;;;11.80;99.90;;;;;;5100542;28;20035;-44
2022/09/02 04:49:23;;;;;;;10.40;1.63;;;11.80;99.90;;;;;;5100082;28;20401;-44
2022/09/02 04:51:49;;;;;;;3.22;1.30;;;11.80;99.90;;;;;;5099184;28;20047;-46
2022/09/02 04:54:15;;;;;;;1.50;1.40;;;11.80;99.90;;;;;;5099890;28;20140;-50
2022/09/02 04:56:41;;;;;;;3.38;1.50;;;11.80;99.90;;;;;;5084445;28;20039;-48
2022/09/02 04:59:07;;;;;;;2.78;1.35;;;11.80;99.90;;;;;;5105485;28;20044;-44
2022/09/02 05:01:35;;;;;;;1.52;1.30;;;11.80;99.90;;;;;;5107702;28;20043;-49
2022/09/02 05:04:03;;;;;;;4.07;1.55;;;11.80;99.90;;;;;;5089888;28;20634;-51
2022/09/02 05:06:29;;;;;;;2.15;1.40;;;11.80;99.90;;;;;;5105891;28;20457;-46
2022/09/02 05:08:57;;;;;;;4.43;1.48;;;11.80;99.90;;;;;;5107154;28;20039;-47
2022/09/02 05:11:27;;;;;;;3.45;1.60;;;11.80;99.90;;;;;;5088824;28;20031;-48
2022/09/02 05:13:53;;;;;;;1.50;1.40;;;11.90;99.90;;;;;;5104999;28;20100;-46
2022/09/02 05:16:25;;;;;;;3.35;1.23;;;11.90;99.90;;;;;;5103459;28;20040;-48
2022/09/02 05:18:51;;;;;;;1.88;1.42;;;11.90;99.90;;;;;;5105537;28;20505;-50
2022/09/02 05:21:17;;;;;;;2.92;1.50;;;11.90;99.90;;;;;;5107765;28;20036;-50
2022/09/02 05:23:43;;;;;;;3.05;1.50;;;11.90;99.90;;;;;;5107786;28;20035;-45
2022/09/02 05:26:11;;;;;;;2.95;1.60;;;11.90;99.90;;;;;;5107529;28;20036;-45
2022/09/02 05:28:39;;;;;;;1.58;1.45;;;12.00;99.90;;;;;;5106921;28;20047;-51
2022/09/02 05:31:11;;;;;;;2.22;1.58;;;12.00;99.90;;;;;;5110547;28;20040;-48
2022/09/02 05:33:39;;;;;;;1.83;1.40;;;12.00;99.90;;;;;;5112137;28;20032;-47
2022/09/02 05:36:05;;;;;;;4.90;1.50;;;12.10;99.90;;;;;;5111166;28;20485;-49
2022/09/02 05:38:31;;;;;;;3.20;1.67;;;12.10;99.90;;;;;;5111264;28;20031;-48
2022/09/02 05:41:01;;;;;;;2.70;1.55;;;12.10;99.90;;;;;;5107211;28;20054;-50
2022/09/02 05:43:27;;;;;;;2.20;1.60;;;12.20;99.90;;;;;;5108233;28;20151;-49
2022/09/02 05:45:53;;;;;;;1.70;1.40;;;12.30;99.90;;;;;;5111293;28;20452;-47
2022/09/02 05:51:04;;;;;;;1.83;1.48;;;12.40;99.90;;;;;;5109195;28;20512;-47
2022/09/02 05:53:31;;;;;;;2.63;1.35;;;12.40;99.90;;;;;;5093216;28;20039;-47
2022/09/02 05:55:57;;;;;;;1.80;1.25;;;12.50;99.90;;;;;;5111077;28;20613;-46
2022/09/02 05:58:23;;;;;;;2.53;1.40;;;13.10;99.90;;;;;;5110099;28;20040;-46
2022/09/02 06:00:49;;;;;;;4.32;1.90;;;14.20;99.90;;;;;;5074911;28;20040;-47
2022/09/02 06:03:18;;;;;;;2.13;1.20;;;15.20;99.90;;;;;;5091513;28;20051;-46
2022/09/02 06:05:56;;;;;;;2.80;1.48;;;16.10;99.90;;;;;;5090627;28;20043;-45
2022/09/02 06:08:23;;;;;;;2.58;1.17;;;17.20;99.90;;;;;;5108319;28;20048;-47
2022/09/02 06:10:48;;;;;;;1.20;1.10;;;17.40;99.90;;;;;;5094749;28;20040;-46
2022/09/02 06:13:14;;;;;;;1.75;1.40;;;17.80;99.90;;;;;;5109048;28;20043;-47
2022/09/02 06:15:44;;;;;;;3.15;1.30;;;18.00;99.90;;;;;;5092553;28;20044;-44
2022/09/02 06:18:10;;;;;;;2.20;1.20;;;18.40;99.90;;;;;;5106560;28;20039;-46
2022/09/02 06:20:44;;;;;;;3.58;1.38;;;18.90;99.90;;;;;;5098958;28;20044;-49
2022/09/02 06:23:10;;;;;;;1.83;1.35;;;19.00;99.90;;;;;;5102547;28;20039;-48
2022/09/02 06:25:37;;;;;;;3.65;1.30;;;19.10;99.70;;;;;;5101190;28;20389;-47
2022/09/02 06:28:04;;;;;;;3.35;1.33;;;19.50;99.80;;;;;;5101261;28;20035;-45
2022/09/02 06:30:29;;;;;;;2.28;1.30;;;19.70;99.60;;;;;;5101553;28;20499;-49
2022/09/02 06:32:55;;;;;;;2.38;1.30;;;20.10;98.60;;;;;;5106890;28;20074;-45
2022/09/02 06:35:21;;;;;;;1.85;1.10;;;19.90;97.70;;;;;;5104281;28;20090;-49
2022/09/02 06:37:47;;;;;;;1.40;1.17;;;20.20;97.40;;;;;;5102659;28;20063;-49
2022/09/02 06:40:13;;;;;;;2.08;1.33;;;20.20;97.30;;;;;;5101070;28;20082;-50
2022/09/02 06:42:39;;;;;;;2.67;1.20;;;20.60;97.30;;;;;;5102167;28;20055;-45
2022/09/02 06:45:06;;;;;;;3.83;1.35;;;20.80;96.40;;;;;;5103789;28;20572;-49
2022/09/02 06:47:32;;;;;;;4.07;1.30;;;20.60;95.70;;;;;;5103865;28;20493;-46
2022/09/02 06:49:58;;;;;;;3.95;1.35;;;21.00;95.80;;;;;;5103914;28;20032;-48
2022/09/02 06:52:24;;;;;;;2.83;1.27;;;21.60;96.00;;;;;;5103846;28;20416;-49
2022/09/02 06:54:50;;;;;;;2.13;1.20;;;21.50;95.50;;;;;;5083163;28;20054;-47
2022/09/02 06:57:16;;;;;;;1.50;1.20;;;21.60;94.70;;;;;;5099754;28;20409;-47
2022/09/02 06:59:42;;;;;;;2.33;1.35;;;21.30;94.30;;;;;;5100276;28;20031;-46
2022/09/02 07:02:08;;;;;;;2.85;1.10;;;21.60;94.60;;;;;;5109124;28;20396;-46
2022/09/02 07:07:18;;;;;;;3.45;1.05;;;21.40;94.20;;;;;;5109320;28;20181;-49
2022/09/02 07:09:43;;;;;;;2.00;0.98;;;21.80;94.10;;;;;;5109861;28;20122;-45
2022/09/02 07:12:10;;;;;;;3.42;1.10;;;21.80;93.80;;;;;;5107225;28;20044;-49
2022/09/02 07:14:38;;;;;;;1.88;1.15;;;21.80;93.30;;;;;;5109561;28;20067;-45
2022/09/02 07:17:04;;;;;;;1.58;1.00;;;21.40;93.20;;;;;;5093565;28;20040;-47
2022/09/02 07:19:30;;;;;;;2.10;1.00;;;20.80;93.80;;;;;;5101518;28;20063;-47
2022/09/02 07:21:56;;;;;;;2.75;1.20;;;20.20;94.70;;;;;;5109779;28;20139;-49
2022/09/02 07:24:22;;;;;;;6.80;1.38;;;19.70;95.20;;;;;;5109268;28;20089;-47
2022/09/02 07:26:48;;;;;;;1.88;1.50;;;19.20;96.00;;;;;;5107554;27;20547;-49
2022/09/02 07:29:15;;;;;;;3.47;1.33;;;18.70;96.60;;;;;;5090165;28;20059;-44
2022/09/02 07:31:45;;;;;;;1.45;1.20;;;18.60;97.30;;;;;;5063971;28;20066;-45
2022/09/02 07:34:11;;;;;;;4.97;1.15;;;18.70;97.60;;;;;;5102224;27;20039;-49
2022/09/02 07:36:37;;;;;;;4.30;1.13;;;18.60;97.90;;;;;;5106184;28;20048;-45
2022/09/02 07:39:06;;;;;;;6.88;1.40;;;18.50;98.00;;;;;;5104551;28;20097;-48
2022/09/02 07:41:33;;;;;;;1.98;1.25;;;18.70;98.20;;;;;;5106949;28;20062;-47
2022/09/02 07:43:58;;;;;;;3.50;1.30;;;18.70;97.70;;;;;;5108421;28;20062;-45
2022/09/02 07:46:24;;;;;;;5.35;1.13;;;18.70;97.80;;;;;;5109788;28;20031;-47
2022/09/02 07:48:49;;;;;;;2.50;1.45;;;18.80;97.90;;;;;;5092853;28;20043;-44
2022/09/02 07:51:17;;;;;;;3.10;1.30;;;18.80;98.00;;;;;;5109247;28;20463;-44
2022/09/02 07:53:43;;;;;;;2.17;1.30;;;18.90;97.90;;;;;;5108836;28;20485;-45
2022/09/02 07:56:10;;;;;;;1.75;1.25;;;19.00;98.10;;;;;;5107006;28;20035;-46
2022/09/02 07:58:36;;;;;;;3.43;1.10;;;19.10;97.70;;;;;;5106591;28;20070;-48
2022/09/02 08:01:02;;;;;;;3.75;1.17;;;19.30;97.90;;;;;;5108383;28;20048;-47
2022/09/02 08:03:27;;;;;;;4.78;1.45;;;19.40;97.60;;;;;;5110595;28;20042;-46
2022/09/02 08:05:56;;;;;;;2.22;1.33;;;19.60;97.30;;;;;;5111570;28;20126;-46
2022/09/02 08:08:21;;;;;;;4.07;1.10;;;19.60;97.60;;;;;;5078287;28;20055;-49
2022/09/02 08:10:49;;;;;;;1.50;1.00;;;19.80;97.20;;;;;;5084412;28;20039;-45
2022/09/02 08:13:16;;;;;;;1.33;1.17;;;19.90;96.90;;;;;;5112162;28;20440;-45
2022/09/02 08:15:41;;;;;;;3.97;1.00;;;20.10;96.80;;;;;;5111440;28;20027;-45
2022/09/02 08:18:07;;;;;;;1.10;0.98;;;20.20;96.90;;;;;;5112643;28;20088;-47
2022/09/02 08:20:34;;;;;;;1.90;1.25;;;20.20;96.10;;;;;;5112156;28;20042;-48
2022/09/02 08:22:59;;;;;;;3.23;1.20;;;20.30;95.80;;;;;;5112393;28;20501;-49
2022/09/02 08:25:25;;;;;;;6.03;1.20;;;20.40;96.00;;;;;;5111894;28;20073;-46
2022/09/02 08:27:53;;;;;;;2.17;1.10;;;20.40;95.70;;;;;;5094606;28;20040;-46
2022/09/02 08:30:19;;;;;;;3.20;0.98;;;20.40;95.30;;;;;;5109015;28;20393;-47
2022/09/02 08:32:45;;;;;;;2.92;1.13;;;20.40;95.40;;;;;;5112413;28;20088;-46
2022/09/02 08:35:11;;;;;;;1.98;1.23;;;20.70;95.70;;;;;;5109572;28;20035;-45
2022/09/02 08:37:37;;;;;;;2.70;0.98;;;20.90;95.40;;;;;;5111748;28;20266;-45
2022/09/02 08:40:05;;;;;;;2.65;1.35;;;20.90;95.00;;;;;;5110953;28;20059;-49
2022/09/02 08:42:32;;;;;;;3.55;1.20;;;21.00;94.60;;;;;;5088937;28;20044;-47
2022/09/02 08:45:07;;;;;;;1.38;1.00;;;21.00;94.70;;;;;;5086968;28;20040;-48
2022/09/02 08:47:36;;;;;;;3.58;1.17;;;21.10;94.90;;;;;;5090660;28;20481;-49
2022/09/02 08:50:20;;;;;;;2.53;1.13;;;21.10;94.40;;;;;;5089612;28;20111;-51
2022/09/02 08:53:05;;;;;;;1.65;0.95;;;21.10;94.10;;;;;;5076334;28;21110;-46
2022/09/02 08:55:53;;;;;;;4.80;1.40;;;21.20;94.20;;;;;;5090508;28;20474;-51
2022/09/02 08:58:22;;;;;;;2.17;1.20;;;21.40;94.10;;;;;;5091079;28;20139;-47
2022/09/02 09:01:27;;;;;;;2.03;1.17;;;21.40;93.60;;;;;;5089831;28;20386;-46
2022/09/02 09:04:14;;;;;;;1.50;1.10;;;21.60;94.00;;;;;;5088563;28;20044;-45
2022/09/02 09:06:45;;;;;;;2.70;0.90;;;21.70;94.00;;;;;;5095734;28;20036;-45
2022/09/02 09:09:21;;;;;;;1.67;1.10;;;21.90;93.80;;;;;;5095402;28;20044;-47
2022/09/02 09:11:47;;;;;;;2.90;1.08;;;22.00;93.10;;;;;;5095946;28;20490;-45
2022/09/02 09:14:24;;;;;;;3.03;1.00;;;22.00;93.40;;;;;;5095576;28;20048;-45
2022/09/02 09:17:05;;;;;;;2.65;1.00;;;22.10;93.10;;;;;;5095819;28;20048;-45
2022/09/02 09:19:36;;;;;;;2.17;1.10;;;22.20;93.10;;;;;;5095736;28;20479;-49
2022/09/02 09:22:02;;;;;;;4.57;1.20;;;22.10;92.20;;;;;;5095809;28;20142;-48
2022/09/02 09:24:43;;;;;;;4.60;1.20;;;22.30;91.90;;;;;;5095677;28;20058;-46
2022/09/02 09:27:18;;;;;;;2.40;1.00;;;22.30;92.00;;;;;;5091865;28;20155;-46
2022/09/02 09:29:44;;;;;;;2.45;1.10;;;22.40;92.00;;;;;;5087204;28;20145;-46
2022/09/02 09:32:22;;;;;;;3.05;0.93;;;22.40;91.50;;;;;;5084209;28;20486;-47
2022/09/02 09:34:51;;;;;;;2.17;1.00;;;22.60;92.00;;;;;;5082260;28;20040;-45
2022/09/02 09:37:30;;;;;;;1.67;1.00;;;22.70;91.30;;;;;;5085291;28;20036;-46
2022/09/02 09:39:56;;;;;;;3.00;1.02;;;22.70;91.30;;;;;;5086463;28;20044;-49
2022/09/02 09:42:36;;;;;;;1.77;1.10;;;23.00;91.80;;;;;;5092578;28;20132;-47
2022/09/02 09:45:26;;;;;;;1.88;0.98;;;23.00;90.50;;;;;;5104642;28;20449;-46
2022/09/02 09:48:31;;;;;;;3.72;1.30;;;23.10;90.50;;;;;;5101962;28;20032;-47
2022/09/02 09:50:56;;;;;;;5.07;1.20;;;23.10;90.20;;;;;;5113888;28;20062;-47
2022/09/02 09:53:28;;;;;;;2.97;1.45;;;23.30;90.80;;;;;;5112550;28;20036;-46
2022/09/02 09:56:04;;;;;;;4.63;1.15;;;23.40;90.40;;;;;;5109614;27;20079;-46
2022/09/02 09:58:33;;;;;;;2.90;1.15;;;23.30;89.90;;;;;;5101353;28;20043;-50
2022/09/02 10:01:17;;;;;;;2.05;0.90;;;23.60;90.30;;;;;;5111646;28;20105;-50
2022/09/02 10:03:59;;;;;;;3.75;1.00;;;23.70;89.40;;;;;;5112408;28;20081;-47
2022/09/02 10:06:31;;;;;;;3.28;1.10;;;23.60;86.80;;;;;;5114525;28;20047;-50
2022/09/02 10:08:58;;;;;;;2.92;0.95;;;23.60;87.10;;;;;;5104233;28;20036;-47
2022/09/02 10:11:30;;;;;;;1.45;0.63;;;23.60;86.40;;;;;;5109990;28;20039;-48
2022/09/02 10:14:01;;;;;;;2.92;0.90;;;23.70;87.40;;;;;;5109836;28;20040;-49
2022/09/02 10:17:05;;;;;;;2.13;0.88;;;24.00;87.60;;;;;;5110915;28;20040;-45
2022/09/02 10:19:55;;;;;;;2.67;1.00;;;23.80;84.80;;;;;;5102507;28;20039;-47
2022/09/02 10:22:44;;;;;;;4.75;0.93;;;23.80;85.00;;;;;;5105784;28;20504;-45
2022/09/02 10:25:37;;;;;;;3.17;1.00;;;23.80;85.20;;;;;;5107923;28;20047;-46
2022/09/02 10:28:24;;;;;;;4.43;1.13;;;23.90;84.50;;;;;;5110872;28;20108;-47
2022/09/02 10:30:57;;;;;;;3.10;1.05;;;24.10;84.70;;;;;;5103341;27;20122;-46
2022/09/02 10:33:52;;;;;;;3.92;1.00;;;24.30;82.50;;;;;;5110866;28;20516;-49
2022/09/02 10:36:31;;;;;;;3.40;1.00;;;24.40;82.40;;;;;;5107404;28;20175;-49
2022/09/02 10:39:35;;;;;;;4.78;0.80;;;24.30;82.50;;;;;;5109651;28;20144;-47
2022/09/02 10:42:13;;;;;;;2.10;0.73;;;24.20;81.40;;;;;;5106859;28;20052;-49
2022/09/02 10:45:16;;;;;;;3.17;1.00;;;24.30;81.90;;;;;;5103112;28;20040;-50
2022/09/02 10:47:48;;;;;;;2.00;0.85;;;24.60;80.80;;;;;;5100269;28;20058;-49
2022/09/02 10:50:25;;;;;;;3.72;1.00;;;24.50;79.80;;;;;;5106811;28;20122;-47
2022/09/02 10:53:18;;;;;;;1.33;0.90;;;24.60;79.60;;;;;;5111185;28;20373;-47
2022/09/02 10:55:59;;;;;;;4.75;1.35;;;24.50;79.30;;;;;;5109619;28;20075;-49
2022/09/02 10:58:43;;;;;;;4.70;1.05;;;24.60;79.90;;;;;;5105527;28;20405;-46
2022/09/02 11:01:15;;;;;;;1.75;0.90;;;24.40;78.60;;;;;;5105001;28;20050;-46
2022/09/02 11:03:50;;;;;;;1.77;0.95;;;24.50;79.20;;;;;;5110257;28;20073;-45
2022/09/02 11:06:28;;;;;;;1.27;0.80;;;24.40;79.80;;;;;;5107479;28;20070;-45
2022/09/02 11:09:02;;;;;;;2.35;0.88;;;24.50;78.90;;;;;;5112241;28;20039;-44
2022/09/02 11:11:45;;;;;;;3.78;1.10;;;24.50;78.90;;;;;;5095949;28;20043;-48
2022/09/02 11:14:25;;;;;;;1.35;0.90;;;24.50;79.10;;;;;;5110557;28;20036;-47
2022/09/02 11:17:09;;;;;;;4.30;1.35;;;24.60;80.20;;;;;;5083791;28;20061;-47
2022/09/02 11:19:54;;;;;;;1.77;0.80;;;24.70;78.70;;;;;;5107608;28;20123;-49
2022/09/02 11:22:34;;;;;;;4.30;1.05;;;24.80;78.90;;;;;;5105250;28;20370;-48
2022/09/02 11:25:07;;;;;;;2.13;1.20;;;24.70;77.40;;;;;;5099507;28;20043;-50
2022/09/02 11:27:47;;;;;;;5.03;1.08;;;24.70;77.30;;;;;;5091491;28;20053;-49
2022/09/02 11:30:21;;;;;;;2.13;0.80;;;24.80;77.50;;;;;;5111916;28;20101;-48
2022/09/02 11:33:17;;;;;;;1.85;0.80;;;25.00;77.50;;;;;;5108727;28;20050;-47
2022/09/02 11:35:43;;;;;;;2.00;1.02;;;24.90;77.00;;;;;;5107251;28;20095;-47
2022/09/02 11:38:35;;;;;;;1.60;0.90;;;24.80;75.50;;;;;;5099582;28;20048;-45
2022/09/02 11:41:33;;;;;;;3.50;0.80;;;24.90;75.30;;;;;;5112433;28;20100;-48
2022/09/02 11:44:24;;;;;;;3.72;0.90;;;25.00;75.10;;;;;;5110707;28;20039;-49
2022/09/02 11:47:21;;;;;;;1.08;0.80;;;25.20;74.40;;;;;;5093319;28;20565;-46
2022/09/02 11:49:50;;;;;;;3.33;0.80;;;25.30;73.90;;;;;;5093255;28;20044;-47
2022/09/02 11:52:43;;;;;;;2.67;1.08;;;25.50;74.10;;;;;;5092970;28;20486;-45
2022/09/02 11:55:24;;;;;;;2.63;0.90;;;25.60;74.20;;;;;;5078363;28;20051;-46
2022/09/02 11:57:56;;;;;;;2.22;1.10;;;25.60;73.60;;;;;;5113590;28;20421;-50
2022/09/02 12:00:29;;;;;;;1.20;1.10;;;25.70;74.40;;;;;;5095120;28;20051;-47
2022/09/02 12:03:03;;;;;;;2.67;0.93;;;25.80;73.90;;;;;;5110313;28;20047;-49
2022/09/02 12:05:29;;;;;;;1.35;0.90;;;25.80;74.70;;;;;;5112932;28;20046;-47
2022/09/02 12:08:18;;;;;;;1.23;1.02;;;25.90;73.00;;;;;;5081979;28;20051;-46
2022/09/02 12:10:46;;;;;;;2.83;1.38;;;25.90;72.50;;;;;;5092516;28;20494;-50
2022/09/02 12:13:30;;;;;;;;;;;26.00;73.00;;;;;;5093413;28;20452;-46
2022/09/02 12:16:14;;;;;;;1.92;1.05;;;25.80;72.00;;;;;;5110343;28;20362;-49
2022/09/02 12:18:45;;;;;;;3.90;1.00;;;25.90;72.90;;;;;;5105808;28;20058;-45
2022/09/02 12:21:13;;;;;;;3.20;1.20;;;25.80;71.00;;;;;;5112772;28;20043;-47
2022/09/02 12:24:06;;;;;;;2.83;1.02;;;25.90;71.00;;;;;;5112745;28;20500;-50
2022/09/02 12:26:35;;;;;;;4.03;1.20;;;26.10;72.00;;;;;;5104360;28;20495;-48
2022/09/02 12:29:18;;;;;;;3.97;1.10;;;26.10;70.60;;;;;;5108647;28;20123;-46
2022/09/02 12:31:53;;;;;;;1.60;1.00;;;26.00;70.50;;;;;;5105486;28;20559;-45
2022/09/02 12:34:19;;;;;;;2.10;0.82;;;25.80;70.10;;;;;;5106562;28;20075;-46
2022/09/02 12:36:49;;;;;;;2.20;1.13;;;25.90;70.00;;;;;;5107295;28;20074;-46
2022/09/02 12:39:26;;;;;;;3.15;1.00;;;25.70;69.50;;;;;;5111200;28;20468;-46
2022/09/02 12:42:20;;;;;;;6.13;1.13;;;25.20;69.80;;;;;;5101482;28;20048;-48
2022/09/02 12:45:08;;;;;;;4.43;1.20;;;25.00;71.70;;;;;;5108438;28;20375;-48
2022/09/02 12:48:07;;;;;;;2.13;1.20;;;24.80;71.30;;;;;;5103990;28;20048;-45
2022/09/02 12:50:54;;;;;;;2.13;1.10;;;25.20;71.50;;;;;;5101679;28;20079;-45
2022/09/02 12:53:23;;;;;;;1.35;1.02;;;25.60;71.80;;;;;;5104483;28;20127;-50
2022/09/02 12:56:00;;;;;;;1.42;1.00;;;25.70;71.20;;;;;;5099873;28;20564;-46
2022/09/02 12:58:33;;;;;;;2.05;1.23;;;25.70;70.20;;;;;;5104022;28;20413;-47
2022/09/02 13:01:26;;;;;;;3.33;1.10;;;25.70;70.50;;;;;;5088220;28;20465;-49
2022/09/02 13:04:11;;;;;;;2.33;1.20;;;26.00;70.60;;;;;;5107581;28;20040;-45
2022/09/02 13:06:44;;;;;;;2.20;1.20;;;25.70;68.80;;;;;;5102119;28;20130;-47
2022/09/02 13:09:26;;;;;;;3.63;1.13;;;25.80;69.50;;;;;;5101383;28;20043;-45
2022/09/02 13:12:20;;;;;;;1.17;1.00;;;25.80;70.10;;;;;;5102981;28;20059;-48
2022/09/02 13:15:10;;;;;;;3.58;1.35;;;25.90;69.90;;;;;;5106141;28;20036;-45